Terminal Aerodrome Forecast
Issued by NWS

Home | Current Version | Previous Version | Text Only | Print | Product List | Glossary On
Versions: 1 2 3 4 5 6 7 8 9 10 11 12 13 14 15 16 17 18 19 20 21 22 23 24 25 26 27 28 29 30 31 32 33 34 35 36 37 38 39 40 41
000
FTUS43 KMKX 042007 AAB
TAFUES
TAF AMD
KUES 042007Z 0420/0518 06008KT P6SM SCT040 BKN200
     FM050200 06005KT P6SM SCT050 BKN150
     FM051000 07007KT 4SM -SHRA VCTS OVC035CB
     FM051600 08009KT P6SM VCSH OVC025=

USA.gov is the U.S. government's official web portal to all federal, state and local government web resources and services.